createdAt,value
2022-11-14T00:00:59.083Z,99.90
2022-11-14T00:03:25.895Z,99.90
2022-11-14T00:05:52.668Z,99.90
2022-11-14T00:08:25.408Z,99.90
2022-11-14T00:10:52.623Z,99.90
2022-11-14T00:13:20.602Z,99.90
2022-11-14T00:15:54.341Z,99.90
2022-11-14T00:18:21.842Z,99.90
2022-11-14T00:20:50.289Z,99.90
2022-11-14T00:23:17.205Z,99.90
2022-11-14T00:25:47.394Z,99.90
2022-11-14T00:28:14.681Z,99.90
2022-11-14T00:30:41.541Z,99.90
2022-11-14T00:33:08.421Z,99.90
2022-11-14T00:35:35.277Z,99.90
2022-11-14T00:38:02.171Z,99.90
2022-11-14T00:40:29.010Z,99.90
2022-11-14T00:42:55.820Z,99.90
2022-11-14T00:45:22.708Z,99.90
2022-11-14T00:47:49.534Z,99.90
2022-11-14T00:50:17.198Z,99.90
2022-11-14T00:52:44.225Z,99.90
2022-11-14T00:55:11.172Z,99.90
2022-11-14T00:57:37.945Z,99.90
2022-11-14T01:00:06.136Z,99.90
2022-11-14T01:02:33.117Z,99.90
2022-11-14T01:05:00.648Z,99.90
2022-11-14T01:07:27.659Z,99.90
2022-11-14T01:09:54.463Z,99.90
2022-11-14T01:12:21.295Z,99.90
2022-11-14T01:14:48.261Z,99.90
2022-11-14T01:17:15.127Z,99.90
2022-11-14T01:19:41.962Z,99.90
2022-11-14T01:22:08.825Z,99.90
2022-11-14T01:24:35.756Z,99.90
2022-11-14T01:27:02.595Z,99.90
2022-11-14T01:29:29.790Z,99.90
2022-11-14T01:31:56.777Z,99.90
2022-11-14T01:34:24.042Z,99.90
2022-11-14T01:36:50.993Z,99.90
2022-11-14T01:39:17.837Z,99.90
2022-11-14T01:41:44.650Z,99.90
2022-11-14T01:44:38.286Z,99.90
2022-11-14T01:47:06.162Z,99.90
2022-11-14T01:49:45.877Z,99.90
2022-11-14T01:52:19.877Z,99.90
2022-11-14T01:54:50.006Z,99.90
2022-11-14T01:57:22.588Z,99.90
2022-11-14T01:59:53.613Z,99.90
2022-11-14T02:02:25.433Z,99.90
2022-11-14T02:05:05.788Z,99.90
2022-11-14T02:07:36.944Z,99.90
2022-11-14T02:10:11.355Z,99.90
2022-11-14T02:12:38.517Z,99.90
2022-11-14T02:15:05.765Z,99.90
2022-11-14T02:17:33.023Z,99.90
2022-11-14T02:20:12.388Z,99.90
2022-11-14T02:22:41.036Z,99.90
2022-11-14T02:25:12.359Z,99.90
2022-11-14T02:27:40.303Z,99.90
2022-11-14T02:30:10.791Z,99.90
2022-11-14T02:33:08.811Z,99.90
2022-11-14T02:35:25.026Z,99.90
2022-11-14T02:37:51.823Z,99.90
2022-11-14T02:40:18.849Z,99.90
2022-11-14T02:42:45.690Z,99.90
2022-11-14T02:45:13.411Z,99.90
2022-11-14T02:47:40.206Z,99.90
2022-11-14T02:50:07.357Z,99.90
2022-11-14T02:52:34.174Z,99.90
2022-11-14T02:55:01.043Z,99.90
2022-11-14T02:57:27.838Z,99.90
2022-11-14T02:59:54.647Z,99.90
2022-11-14T03:02:21.443Z,99.90
2022-11-14T03:04:48.253Z,99.90
2022-11-14T03:07:15.332Z,99.90
2022-11-14T03:09:42.166Z,99.90
2022-11-14T03:12:09.741Z,99.90
2022-11-14T03:14:36.648Z,99.90
2022-11-14T03:17:03.753Z,99.90
2022-11-14T03:19:30.577Z,99.90
2022-11-14T03:21:57.399Z,99.90
2022-11-14T03:24:24.224Z,99.90
2022-11-14T03:26:51.130Z,99.90
2022-11-14T03:29:17.964Z,99.90
2022-11-14T03:31:44.957Z,99.90
2022-11-14T03:34:11.792Z,99.90
2022-11-14T03:36:38.667Z,99.90
2022-11-14T03:39:05.942Z,99.90
2022-11-14T03:41:32.814Z,99.90
2022-11-14T03:43:59.706Z,99.90
2022-11-14T03:46:27.088Z,99.90
2022-11-14T03:48:53.958Z,99.90
2022-11-14T03:51:20.965Z,99.90
2022-11-14T03:53:47.798Z,99.90
2022-11-14T03:56:14.635Z,99.90
2022-11-14T03:58:41.471Z,99.90
2022-11-14T04:01:08.405Z,99.90
2022-11-14T04:03:35.349Z,99.90
2022-11-14T04:06:03.213Z,99.90
2022-11-14T04:08:30.495Z,99.90
2022-11-14T04:10:57.649Z,99.90
2022-11-14T04:13:24.464Z,99.90
2022-11-14T04:15:58.861Z,99.90
2022-11-14T04:18:26.489Z,99.90
2022-11-14T04:20:53.728Z,99.90
2022-11-14T04:23:20.695Z,99.90
2022-11-14T04:25:47.860Z,99.90
2022-11-14T04:28:14.909Z,99.90
2022-11-14T04:30:41.958Z,99.90
2022-11-14T04:33:08.811Z,99.90
2022-11-14T04:35:35.651Z,99.90
2022-11-14T04:38:02.941Z,99.90
2022-11-14T04:40:29.958Z,99.90
2022-11-14T04:42:56.796Z,99.90
2022-11-14T04:45:23.664Z,99.90
2022-11-14T04:47:50.513Z,99.90
2022-11-14T04:50:17.414Z,99.90
2022-11-14T04:52:44.523Z,99.90
2022-11-14T04:55:11.399Z,99.90
2022-11-14T04:57:38.194Z,99.90
2022-11-14T05:00:05.932Z,99.90
2022-11-14T05:02:33.044Z,99.90
2022-11-14T05:04:59.963Z,99.90
2022-11-14T05:07:26.865Z,99.90
2022-11-14T05:09:53.748Z,99.90
2022-11-14T05:12:20.577Z,99.90
2022-11-14T05:14:47.452Z,99.90
2022-11-14T05:17:14.236Z,99.90
2022-11-14T05:19:41.107Z,99.90
2022-11-14T05:22:07.915Z,99.90
2022-11-14T05:24:34.734Z,99.90
2022-11-14T05:27:01.533Z,99.90
2022-11-14T05:29:28.383Z,99.90
2022-11-14T05:31:55.173Z,99.90
2022-11-14T05:34:21.967Z,99.90
2022-11-14T05:36:48.772Z,99.90
2022-11-14T05:39:16.590Z,99.90
2022-11-14T05:41:43.418Z,99.90
2022-11-14T05:44:10.335Z,99.90
2022-11-14T05:46:37.149Z,99.90
2022-11-14T05:49:04.011Z,99.90
2022-11-14T05:51:30.798Z,99.90
2022-11-14T05:53:57.616Z,99.90
2022-11-14T05:56:24.494Z,99.90
2022-11-14T05:58:51.306Z,99.90
2022-11-14T06:01:19.886Z,99.90
2022-11-14T06:03:48.238Z,99.90
2022-11-14T06:06:19.212Z,99.90
2022-11-14T06:08:46.594Z,99.90
2022-11-14T06:11:16.486Z,99.90
2022-11-14T06:13:43.855Z,99.90
2022-11-14T06:16:16.383Z,99.90
2022-11-14T06:18:43.583Z,99.90
2022-11-14T06:21:21.884Z,99.90
2022-11-14T06:23:49.565Z,99.90
2022-11-14T06:26:24.918Z,99.90
2022-11-14T06:28:53.043Z,99.90
2022-11-14T06:31:20.945Z,99.90
2022-11-14T06:33:48.314Z,99.90
2022-11-14T06:36:15.448Z,99.90
2022-11-14T06:38:43.136Z,99.90
2022-11-14T06:41:13.779Z,99.90
2022-11-14T06:43:42.517Z,99.90
2022-11-14T06:46:12.561Z,99.90
2022-11-14T06:48:40.302Z,99.90
2022-11-14T06:51:07.545Z,99.90
2022-11-14T06:53:36.422Z,99.90
2022-11-14T06:56:12.283Z,99.90
2022-11-14T06:58:45.378Z,99.90
2022-11-14T07:01:23.384Z,99.90
2022-11-14T07:03:50.634Z,99.90
2022-11-14T07:06:21.090Z,99.90
2022-11-14T07:08:47.996Z,99.90
2022-11-14T07:11:23.278Z,99.90
2022-11-14T07:13:55.290Z,99.90
2022-11-14T07:16:25.919Z,99.90
2022-11-14T07:18:52.914Z,99.90
2022-11-14T07:21:19.727Z,99.90
2022-11-14T07:23:46.651Z,99.90
2022-11-14T07:26:13.528Z,99.90
2022-11-14T07:28:45.133Z,99.90
2022-11-14T07:31:16.985Z,99.90
2022-11-14T07:33:45.086Z,99.90
2022-11-14T07:36:13.196Z,99.90
2022-11-14T07:38:40.726Z,99.90
2022-11-14T07:41:11.022Z,99.90
2022-11-14T07:43:38.188Z,99.90
2022-11-14T07:46:14.627Z,99.90
2022-11-14T07:48:41.623Z,99.90
2022-11-14T07:51:14.351Z,99.90
2022-11-14T07:53:41.355Z,99.90
2022-11-14T07:56:13.056Z,99.90
2022-11-14T07:58:41.648Z,99.90
2022-11-14T08:01:11.270Z,99.90
2022-11-14T08:03:44.020Z,99.90
2022-11-14T08:06:14.994Z,99.90
2022-11-14T08:08:41.971Z,99.90
2022-11-14T08:11:09.057Z,99.90
2022-11-14T08:13:36.091Z,99.90
2022-11-14T08:16:13.744Z,99.90
2022-11-14T08:18:41.751Z,99.90
2022-11-14T08:21:08.886Z,99.90
2022-11-14T08:23:35.902Z,99.90
2022-11-14T08:26:02.742Z,99.90
2022-11-14T08:28:29.851Z,99.90
2022-11-14T08:31:04.721Z,99.90
2022-11-14T08:33:32.164Z,99.90
2022-11-14T08:36:17.083Z,99.90
2022-11-14T08:38:44.169Z,99.90
2022-11-14T08:41:11.208Z,99.90
2022-11-14T08:43:38.144Z,99.90
2022-11-14T08:46:05.768Z,99.90
2022-11-14T08:48:33.186Z,99.90
2022-11-14T08:51:06.879Z,99.90
2022-11-14T08:53:34.761Z,99.90
2022-11-14T08:56:01.973Z,99.90
2022-11-14T08:58:31.392Z,99.90
2022-11-14T09:01:07.290Z,99.90
2022-11-14T09:03:34.883Z,99.90
2022-11-14T09:06:02.666Z,99.90
2022-11-14T09:08:30.792Z,99.90
2022-11-14T09:11:05.378Z,99.90
2022-11-14T09:13:34.367Z,99.90
2022-11-14T09:16:01.538Z,99.90
2022-11-14T09:18:29.708Z,99.90
2022-11-14T09:21:01.385Z,99.90
2022-11-14T09:23:30.374Z,99.90
2022-11-14T09:25:57.723Z,99.90
2022-11-14T09:28:25.281Z,99.90
2022-11-14T09:30:52.098Z,99.90
2022-11-14T09:33:19.107Z,99.90
2022-11-14T09:35:46.060Z,99.90
2022-11-14T09:38:13.016Z,99.90
2022-11-14T09:41:01.488Z,99.90
2022-11-14T09:43:39.255Z,99.90
2022-11-14T09:46:20.403Z,98.70
2022-11-14T09:48:47.663Z,97.90
2022-11-14T09:51:22.290Z,96.90
2022-11-14T09:54:43.421Z,96.30
2022-11-14T09:57:17.529Z,95.80
2022-11-14T09:59:47.218Z,94.80
2022-11-14T10:02:24.801Z,94.30
2022-11-14T10:05:12.829Z,94.10
2022-11-14T10:08:00.196Z,91.30
2022-11-14T10:10:52.484Z,91.50
2022-11-14T10:13:57.108Z,90.90
2022-11-14T10:16:48.208Z,90.50
2022-11-14T10:19:40.015Z,90.30
2022-11-14T10:22:36.556Z,88.30
2022-11-14T10:25:24.324Z,88.40
2022-11-14T10:27:57.470Z,86.80
2022-11-14T10:30:43.879Z,87.20
2022-11-14T10:33:34.455Z,83.70
2022-11-14T10:36:31.645Z,84.20
2022-11-14T10:39:29.346Z,84.10
2022-11-14T10:42:06.214Z,83.90
2022-11-14T10:44:40.115Z,82.10
2022-11-14T10:47:16.411Z,80.50
2022-11-14T10:49:48.844Z,80.80
2022-11-14T10:52:28.069Z,80.50
2022-11-14T10:55:03.353Z,82.10
2022-11-14T10:57:30.714Z,81.80
2022-11-14T10:59:57.686Z,82.50
2022-11-14T11:02:24.668Z,81.10
2022-11-14T11:04:51.734Z,81.70
2022-11-14T11:07:45.990Z,82.00
2022-11-14T11:10:42.868Z,81.20
2022-11-14T11:13:15.930Z,83.00
2022-11-14T11:15:43.397Z,83.50
2022-11-14T11:18:30.067Z,83.30
2022-11-14T11:21:13.281Z,83.20
2022-11-14T11:23:53.415Z,82.40
2022-11-14T11:26:28.457Z,83.90
2022-11-14T11:29:19.698Z,82.90
2022-11-14T11:31:50.886Z,83.80
2022-11-14T11:34:33.089Z,81.30
2022-11-14T11:37:09.261Z,80.10
2022-11-14T11:39:51.047Z,80.30
2022-11-14T11:43:06.208Z,81.60
2022-11-14T11:45:18.707Z,82.50
2022-11-14T11:47:54.605Z,82.90
2022-11-14T11:50:24.242Z,81.90
2022-11-14T11:53:31.950Z,81.30
2022-11-14T11:56:25.073Z,79.20
2022-11-14T11:58:58.888Z,80.60
2022-11-14T12:01:25.748Z,79.90
2022-11-14T12:03:54.500Z,78.80
2022-11-14T12:06:27.621Z,79.30
2022-11-14T12:09:21.160Z,79.40
2022-11-14T12:11:57.352Z,78.90
2022-11-14T12:14:48.430Z,79.20
2022-11-14T12:17:31.004Z,76.80
2022-11-14T12:20:22.764Z,75.90
2022-11-14T12:23:23.683Z,74.70
2022-11-14T12:26:20.804Z,73.70
2022-11-14T12:28:59.512Z,73.20
2022-11-14T12:31:32.267Z,74.10
2022-11-14T12:34:27.674Z,72.10
2022-11-14T12:36:54.796Z,72.00
2022-11-14T12:39:27.314Z,72.20
2022-11-14T12:42:09.909Z,69.80
2022-11-14T12:44:40.744Z,68.50
2022-11-14T12:47:07.810Z,69.00
2022-11-14T12:49:38.603Z,69.20
2022-11-14T12:52:25.448Z,67.80
2022-11-14T12:54:52.263Z,66.60
2022-11-14T12:57:47.633Z,64.40
2022-11-14T13:00:15.988Z,65.80
2022-11-14T13:03:27.721Z,66.00
2022-11-14T13:06:09.132Z,65.50
2022-11-14T13:09:07.428Z,66.10
2022-11-14T13:12:00.676Z,67.80
2022-11-14T13:14:47.361Z,67.30
2022-11-14T13:17:35.988Z,69.50
2022-11-14T13:20:43.313Z,71.00
2022-11-14T13:23:33.439Z,76.20
2022-11-14T13:26:13.706Z,79.00
2022-11-14T13:28:45.084Z,81.90
2022-11-14T13:31:20.512Z,85.10
2022-11-14T13:34:00.682Z,87.40
2022-11-14T13:36:54.310Z,90.50
2022-11-14T13:39:38.322Z,91.30
2022-11-14T13:42:32.924Z,91.90
2022-11-14T13:45:08.601Z,92.60
2022-11-14T13:48:03.547Z,93.70
2022-11-14T13:50:36.940Z,94.40
2022-11-14T13:53:13.694Z,95.50
2022-11-14T13:55:56.012Z,96.40
2022-11-14T13:58:32.121Z,97.50
2022-11-14T14:01:20.561Z,98.60
2022-11-14T14:04:09.545Z,99.90
2022-11-14T14:06:48.361Z,99.90
2022-11-14T14:09:41.014Z,99.90
2022-11-14T14:12:07.846Z,99.90
2022-11-14T14:14:56.395Z,99.90
2022-11-14T14:17:31.833Z,98.20
2022-11-14T14:20:05.569Z,94.60
2022-11-14T14:22:58.553Z,93.10
2022-11-14T14:26:19.606Z,92.10
2022-11-14T14:29:06.234Z,93.30
2022-11-14T14:31:37.893Z,93.20
2022-11-14T14:34:31.548Z,93.00
2022-11-14T14:36:58.909Z,93.80
2022-11-14T14:39:27.767Z,95.70
2022-11-14T14:41:57.458Z,97.70
2022-11-14T14:44:31.660Z,99.90
2022-11-14T14:46:59.130Z,99.90
2022-11-14T14:49:28.177Z,99.90
2022-11-14T14:51:58.555Z,99.90
2022-11-14T14:54:29.554Z,99.90
2022-11-14T14:57:00.559Z,99.90
2022-11-14T14:59:29.661Z,99.90
2022-11-14T15:01:57.981Z,99.90
2022-11-14T15:04:29.926Z,99.90
2022-11-14T15:06:58.301Z,99.90
2022-11-14T15:09:27.946Z,99.90
2022-11-14T15:11:59.028Z,99.90
2022-11-14T15:14:35.696Z,99.90
2022-11-14T15:17:04.698Z,99.90
2022-11-14T15:19:40.918Z,99.90
2022-11-14T15:22:17.853Z,99.90
2022-11-14T15:25:02.767Z,99.90
2022-11-14T15:27:31.058Z,99.90
2022-11-14T15:30:01.435Z,99.90
2022-11-14T15:32:28.418Z,99.90
2022-11-14T15:35:24.910Z,99.90
2022-11-14T15:38:28.746Z,99.90
2022-11-14T15:41:22.755Z,99.90
2022-11-14T15:43:53.029Z,99.90
2022-11-14T15:46:35.655Z,99.90
2022-11-14T15:49:14.667Z,99.90
2022-11-14T15:52:17.181Z,99.90
2022-11-14T15:54:44.007Z,99.90
2022-11-14T15:57:16.763Z,99.90
2022-11-14T15:59:44.034Z,99.90
2022-11-14T16:02:46.421Z,99.90
2022-11-14T16:05:15.254Z,99.90
2022-11-14T16:07:42.381Z,99.90
2022-11-14T16:10:15.555Z,99.90
2022-11-14T16:12:42.511Z,99.90
2022-11-14T16:15:09.774Z,99.90
2022-11-14T16:17:38.813Z,99.90
2022-11-14T16:20:07.797Z,99.90
2022-11-14T16:22:34.616Z,99.90
2022-11-14T16:25:01.477Z,99.90
2022-11-14T16:27:28.339Z,99.90
2022-11-14T16:29:55.149Z,99.90
2022-11-14T16:32:23.436Z,99.90
2022-11-14T16:34:50.221Z,99.90
2022-11-14T16:37:17.009Z,99.90
2022-11-14T16:39:43.848Z,99.90
2022-11-14T16:42:11.603Z,99.90
2022-11-14T16:44:42.012Z,99.90
2022-11-14T16:47:14.771Z,99.90
2022-11-14T16:49:41.576Z,99.90
2022-11-14T16:52:10.932Z,99.90
2022-11-14T16:54:37.783Z,99.90
2022-11-14T16:57:04.577Z,99.90
2022-11-14T16:59:32.138Z,99.90
2022-11-14T17:01:59.013Z,99.90
2022-11-14T17:04:25.872Z,99.90
2022-11-14T17:06:52.787Z,99.90
2022-11-14T17:09:19.670Z,99.90
2022-11-14T17:11:46.525Z,99.90
2022-11-14T17:14:13.377Z,99.90
2022-11-14T17:16:40.198Z,99.90
2022-11-14T17:19:07.870Z,99.90
2022-11-14T17:21:34.718Z,99.90
2022-11-14T17:24:01.693Z,99.90
2022-11-14T17:26:29.204Z,99.90
2022-11-14T17:28:56.236Z,99.90
2022-11-14T17:31:23.323Z,99.90
2022-11-14T17:33:59.432Z,99.90
2022-11-14T17:36:28.424Z,99.90
2022-11-14T17:38:56.532Z,99.90
2022-11-14T17:41:23.887Z,99.90
2022-11-14T17:43:56.610Z,99.90
2022-11-14T17:46:23.472Z,99.90
2022-11-14T17:48:50.337Z,99.90
2022-11-14T17:51:17.310Z,99.90
2022-11-14T17:53:44.155Z,99.90
2022-11-14T17:56:20.365Z,99.90
2022-11-14T17:58:48.646Z,99.90
2022-11-14T18:01:18.053Z,99.90
2022-11-14T18:03:45.075Z,99.90
2022-11-14T18:06:14.746Z,99.90
2022-11-14T18:08:41.861Z,99.90
2022-11-14T18:11:11.530Z,99.90
2022-11-14T18:13:39.169Z,99.90
2022-11-14T18:16:17.927Z,99.90
2022-11-14T18:18:45.455Z,99.90
2022-11-14T18:21:18.838Z,99.90
2022-11-14T18:23:51.308Z,99.90
2022-11-14T18:26:19.406Z,99.90
2022-11-14T18:28:46.222Z,99.90
2022-11-14T18:31:13.945Z,99.90
2022-11-14T18:33:41.631Z,99.90
2022-11-14T18:36:11.847Z,99.90
2022-11-14T18:38:39.665Z,99.90
2022-11-14T18:41:13.698Z,99.90
2022-11-14T18:43:41.172Z,99.90
2022-11-14T18:46:10.985Z,99.90
2022-11-14T18:48:39.883Z,99.90
2022-11-14T18:51:10.851Z,99.90
2022-11-14T18:53:37.945Z,99.90
2022-11-14T18:56:16.127Z,99.90
2022-11-14T18:58:44.343Z,99.90
2022-11-14T19:01:16.743Z,99.90
2022-11-14T19:03:43.867Z,99.90
2022-11-14T19:06:13.088Z,99.90
2022-11-14T19:08:41.137Z,99.90
2022-11-14T19:11:33.751Z,99.90
2022-11-14T19:14:06.314Z,99.90
2022-11-14T19:16:34.612Z,99.90
2022-11-14T19:19:02.243Z,99.90
2022-11-14T19:21:29.529Z,99.90
2022-11-14T19:23:57.376Z,99.90
2022-11-14T19:26:24.189Z,99.90
2022-11-14T19:28:51.459Z,99.90
2022-11-14T19:31:19.623Z,99.90
2022-11-14T19:33:46.539Z,99.90
2022-11-14T19:36:52.812Z,99.90
2022-11-14T19:39:08.463Z,99.90
2022-11-14T19:41:35.343Z,99.90
2022-11-14T19:44:02.812Z,99.90
2022-11-14T19:46:30.235Z,99.90
2022-11-14T19:49:00.914Z,99.90
2022-11-14T19:51:29.649Z,99.90
2022-11-14T19:53:58.283Z,99.90
2022-11-14T19:56:25.847Z,99.90
2022-11-14T19:58:55.380Z,99.90
2022-11-14T20:01:27.432Z,99.90
2022-11-14T20:03:59.667Z,99.90
2022-11-14T20:06:30.063Z,99.90
2022-11-14T20:08:58.170Z,99.90
2022-11-14T20:11:28.088Z,99.90
2022-11-14T20:13:56.038Z,99.90
2022-11-14T20:16:28.288Z,99.90
2022-11-14T20:18:59.088Z,99.90
2022-11-14T20:21:28.816Z,99.90
2022-11-14T20:23:55.988Z,99.90
2022-11-14T20:26:23.708Z,99.90
2022-11-14T20:28:52.913Z,99.90
2022-11-14T20:31:25.458Z,99.90
2022-11-14T20:33:53.662Z,99.90
2022-11-14T20:36:23.951Z,99.90
2022-11-14T20:38:52.085Z,99.90
2022-11-14T20:41:19.306Z,99.90
2022-11-14T20:43:46.245Z,99.90
2022-11-14T20:46:16.118Z,99.90
2022-11-14T20:48:43.684Z,99.90
2022-11-14T20:51:17.765Z,99.90
2022-11-14T20:53:44.932Z,99.90
2022-11-14T20:56:13.227Z,99.90
2022-11-14T20:58:41.683Z,99.90
2022-11-14T21:01:08.718Z,99.90
2022-11-14T21:03:36.125Z,99.90
2022-11-14T21:06:04.135Z,99.90
2022-11-14T21:08:33.392Z,99.90
2022-11-14T21:11:03.562Z,99.90
2022-11-14T21:13:48.958Z,99.90
2022-11-14T21:16:19.179Z,99.90
2022-11-14T21:18:48.317Z,99.90
2022-11-14T21:21:19.862Z,99.90
2022-11-14T21:23:47.560Z,99.90
2022-11-14T21:26:16.889Z,99.90
2022-11-14T21:28:46.120Z,99.90
2022-11-14T21:31:50.966Z,99.90
2022-11-14T21:34:18.582Z,99.90
2022-11-14T21:36:46.938Z,99.90
2022-11-14T21:39:16.312Z,99.90
2022-11-14T21:41:45.199Z,99.90
2022-11-14T21:44:14.513Z,99.90
2022-11-14T21:46:41.890Z,99.90
2022-11-14T21:49:09.517Z,99.90
2022-11-14T21:51:36.320Z,99.90
2022-11-14T21:54:03.262Z,99.90
2022-11-14T21:56:32.206Z,99.90
2022-11-14T21:59:12.915Z,99.90
2022-11-14T22:02:06.549Z,99.90
2022-11-14T22:04:33.893Z,99.90
2022-11-14T22:07:08.588Z,99.90
2022-11-14T22:09:36.395Z,99.90
2022-11-14T22:12:05.899Z,99.90
2022-11-14T22:14:32.720Z,99.90
2022-11-14T22:16:59.843Z,99.90
2022-11-14T22:19:26.668Z,99.90
2022-11-14T22:21:54.266Z,99.90
2022-11-14T22:24:21.175Z,99.90
2022-11-14T22:26:48.001Z,99.90
2022-11-14T22:29:14.988Z,99.90
2022-11-14T22:31:41.775Z,99.90
2022-11-14T22:34:08.665Z,99.90
2022-11-14T22:36:35.924Z,99.90
2022-11-14T22:39:03.038Z,99.90
2022-11-14T22:41:33.408Z,99.90
2022-11-14T22:44:01.558Z,99.90
2022-11-14T22:46:28.779Z,99.90
2022-11-14T22:48:56.243Z,99.90
2022-11-14T22:51:25.344Z,99.90
2022-11-14T22:53:57.231Z,99.90
2022-11-14T22:56:28.614Z,99.90
2022-11-14T22:58:56.580Z,99.90
2022-11-14T23:01:25.602Z,99.90
2022-11-14T23:04:04.350Z,99.90
2022-11-14T23:06:33.236Z,99.90
2022-11-14T23:09:01.082Z,99.90
2022-11-14T23:11:30.294Z,99.90
2022-11-14T23:13:59.392Z,99.90
2022-11-14T23:16:28.955Z,99.90
2022-11-14T23:18:58.742Z,99.90
2022-11-14T23:21:28.116Z,99.90
2022-11-14T23:24:00.285Z,99.90
2022-11-14T23:26:28.604Z,99.90
2022-11-14T23:28:55.793Z,99.90
2022-11-14T23:31:23.490Z,99.90
2022-11-14T23:33:52.619Z,99.90
2022-11-14T23:36:20.022Z,99.90
2022-11-14T23:38:46.956Z,99.90
2022-11-14T23:41:19.267Z,99.90
2022-11-14T23:43:46.953Z,99.90
2022-11-14T23:46:14.788Z,99.90
2022-11-14T23:48:41.763Z,99.90
2022-11-14T23:51:09.627Z,99.90
2022-11-14T23:53:36.508Z,99.90
2022-11-14T23:56:03.823Z,99.90
2022-11-14T23:58:30.853Z,99.90
